createdAt,value
2022-11-16T00:00:01.495Z,100477.80
2022-11-16T00:02:56.065Z,100468.95
2022-11-16T00:05:46.206Z,100458.68
2022-11-16T00:08:37.949Z,100446.47
2022-11-16T00:11:28.101Z,100437.77
2022-11-16T00:14:18.613Z,100430.04
2022-11-16T00:17:08.993Z,100428.47
2022-11-16T00:19:59.357Z,100436.19
2022-11-16T00:22:49.316Z,100441.50
2022-11-16T00:25:39.357Z,100439.82
2022-11-16T00:28:29.757Z,100434.52
2022-11-16T00:31:20.249Z,100428.84
2022-11-16T00:34:09.720Z,100425.98
2022-11-16T00:37:00.373Z,100417.99
2022-11-16T00:39:50.594Z,100410.52
2022-11-16T00:42:40.196Z,100408.27
2022-11-16T00:45:30.130Z,100407.98
2022-11-16T00:48:20.210Z,100396.27
2022-11-16T00:51:10.836Z,100387.21
2022-11-16T00:54:00.990Z,100378.67
2022-11-16T00:56:51.781Z,100375.48
2022-11-16T00:59:41.896Z,100361.55
2022-11-16T01:02:31.890Z,100350.44
2022-11-16T01:05:22.031Z,100340.56
2022-11-16T01:08:12.209Z,100333.70
2022-11-16T01:11:22.141Z,100333.34
2022-11-16T01:14:12.601Z,100332.79
2022-11-16T01:17:02.518Z,100329.82
2022-11-16T01:19:51.901Z,100327.54
2022-11-16T01:22:42.343Z,100324.98
2022-11-16T01:25:32.431Z,100321.52
2022-11-16T01:28:22.366Z,100313.83
2022-11-16T01:31:13.810Z,100306.27
2022-11-16T01:34:04.334Z,100300.47
2022-11-16T01:36:54.539Z,100298.33
2022-11-16T01:39:46.161Z,100301.40
2022-11-16T01:42:36.368Z,100300.52
2022-11-16T01:45:42.613Z,100308.65
2022-11-16T01:48:34.459Z,100309.78
2022-11-16T01:51:25.985Z,100306.95
2022-11-16T01:54:17.792Z,100308.14
2022-11-16T01:57:23.374Z,100310.83
2022-11-16T02:00:26.818Z,100299.61
2022-11-16T02:03:23.024Z,100283.95
2022-11-16T02:06:35.828Z,100271.50
2022-11-16T02:09:58.894Z,100272.99
2022-11-16T02:13:14.781Z,100269.73
2022-11-16T02:16:21.077Z,100262.52
2022-11-16T02:19:39.596Z,100263.57
2022-11-16T02:22:43.287Z,100261.93
2022-11-16T02:25:40.928Z,100264.34
2022-11-16T02:28:45.224Z,100252.88
2022-11-16T02:31:42.020Z,100252.18
2022-11-16T02:34:37.724Z,100257.37
2022-11-16T02:37:30.667Z,100252.29
2022-11-16T02:40:25.299Z,100249.91
2022-11-16T02:43:23.812Z,100245.29
2022-11-16T02:46:19.807Z,100238.16
2022-11-16T02:49:16.428Z,100231.92
2022-11-16T02:52:07.214Z,100216.63
2022-11-16T02:54:57.750Z,100213.58
2022-11-16T02:57:53.118Z,100222.64
2022-11-16T03:00:49.834Z,100221.05
2022-11-16T03:03:47.862Z,100207.23
2022-11-16T03:06:41.661Z,100204.50
2022-11-16T03:09:34.214Z,100203.95
2022-11-16T03:12:36.929Z,100205.85
2022-11-16T03:15:28.165Z,100212.00
2022-11-16T03:18:20.096Z,100215.61
2022-11-16T03:21:17.414Z,100211.21
2022-11-16T03:24:09.404Z,100203.99
2022-11-16T03:27:06.975Z,100202.10
2022-11-16T03:30:06.380Z,100202.41
2022-11-16T03:33:03.073Z,100200.44
2022-11-16T03:35:58.120Z,100198.48
2022-11-16T03:38:53.138Z,100194.02
2022-11-16T03:41:47.450Z,100183.96
2022-11-16T03:44:39.807Z,100168.62
2022-11-16T03:47:31.344Z,100166.44
2022-11-16T03:50:21.262Z,100170.49
2022-11-16T03:53:11.130Z,100170.20
2022-11-16T03:56:00.810Z,100164.50
2022-11-16T03:58:51.296Z,100160.73
2022-11-16T04:01:44.664Z,100166.20
2022-11-16T04:04:53.532Z,100167.67
2022-11-16T04:08:03.872Z,100164.38
2022-11-16T04:11:13.231Z,100162.83
2022-11-16T04:14:20.870Z,100162.34
2022-11-16T04:17:32.277Z,100168.19
2022-11-16T04:20:39.580Z,100162.92
2022-11-16T04:23:47.043Z,100161.42
2022-11-16T04:26:56.418Z,100154.92
2022-11-16T04:29:47.411Z,100153.94
2022-11-16T04:32:55.980Z,100149.55
2022-11-16T04:36:05.005Z,100146.61
2022-11-16T04:38:55.266Z,100149.11
2022-11-16T04:42:03.587Z,100142.38
2022-11-16T04:45:11.701Z,100134.79
2022-11-16T04:48:15.323Z,100124.92
2022-11-16T04:51:05.485Z,100127.51
2022-11-16T04:53:55.670Z,100125.33
2022-11-16T04:56:46.096Z,100123.59
2022-11-16T04:59:36.041Z,100119.34
2022-11-16T05:02:26.492Z,100117.69
2022-11-16T05:05:20.100Z,100111.70
2022-11-16T05:08:10.214Z,100106.46
2022-11-16T05:11:00.732Z,100100.33
2022-11-16T05:13:51.890Z,100094.95
2022-11-16T05:16:42.616Z,100091.21
2022-11-16T05:19:50.500Z,100084.26
2022-11-16T05:22:40.916Z,100078.67
2022-11-16T05:25:36.240Z,100075.27
2022-11-16T05:28:27.647Z,100077.77
2022-11-16T05:31:17.361Z,100078.67
2022-11-16T05:34:07.787Z,100078.80
2022-11-16T05:36:59.797Z,100071.51
2022-11-16T05:39:50.246Z,100070.64
2022-11-16T05:42:41.649Z,100069.98
2022-11-16T05:45:32.372Z,100057.70
2022-11-16T05:48:23.366Z,100048.14
2022-11-16T05:51:14.209Z,100043.58
2022-11-16T05:54:05.593Z,100033.98
2022-11-16T05:56:56.225Z,100033.27
2022-11-16T05:59:46.870Z,100042.20
2022-11-16T06:02:38.043Z,100042.92
2022-11-16T06:05:29.025Z,100049.37
2022-11-16T06:08:20.005Z,100054.52
2022-11-16T06:11:13.301Z,100053.95
2022-11-16T06:14:03.552Z,100049.65
2022-11-16T06:16:53.850Z,100040.48
2022-11-16T06:19:44.982Z,100035.71
2022-11-16T06:22:35.848Z,100029.17
2022-11-16T06:25:25.255Z,100026.48
2022-11-16T06:28:16.253Z,100027.86
2022-11-16T06:31:07.002Z,100028.73
2022-11-16T06:34:00.044Z,100031.79
2022-11-16T06:36:50.441Z,100030.17
2022-11-16T06:39:40.591Z,100035.25
2022-11-16T06:42:31.278Z,100055.67
2022-11-16T06:45:22.336Z,100068.64
2022-11-16T06:48:16.320Z,100068.69
2022-11-16T06:51:08.434Z,100071.07
2022-11-16T06:53:58.858Z,100072.69
2022-11-16T06:56:50.689Z,100082.27
2022-11-16T06:59:41.150Z,100078.34
2022-11-16T07:02:31.350Z,100077.02
2022-11-16T07:05:22.174Z,100086.36
2022-11-16T07:08:12.792Z,100094.95
2022-11-16T07:11:07.234Z,100094.70
2022-11-16T07:13:57.868Z,100098.11
2022-11-16T07:16:48.441Z,100104.84
2022-11-16T07:19:40.195Z,100114.30
2022-11-16T07:22:30.451Z,100110.98
2022-11-16T07:25:21.911Z,100109.98
2022-11-16T07:28:11.870Z,100107.47
2022-11-16T07:31:06.224Z,100101.25
2022-11-16T07:33:56.547Z,100099.56
2022-11-16T07:37:07.144Z,100099.77
2022-11-16T07:39:57.448Z,100102.45
2022-11-16T07:42:47.918Z,100107.55
2022-11-16T07:46:41.286Z,100115.48
2022-11-16T07:49:20.239Z,100120.80
2022-11-16T07:52:14.944Z,100116.41
2022-11-16T07:55:32.413Z,100119.44
2022-11-16T07:58:23.308Z,100117.37
2022-11-16T08:01:15.675Z,100112.69
2022-11-16T08:04:06.196Z,100115.39
2022-11-16T08:06:56.090Z,100120.47
2022-11-16T08:09:46.654Z,100118.75
2022-11-16T08:12:37.612Z,100124.39
2022-11-16T08:15:29.772Z,100119.19
2022-11-16T08:18:21.675Z,100117.41
2022-11-16T08:21:14.503Z,100121.96
2022-11-16T08:24:06.357Z,100128.75
2022-11-16T08:26:59.081Z,100124.38
2022-11-16T08:29:49.482Z,100113.27
2022-11-16T08:32:42.302Z,100105.98
2022-11-16T08:35:32.711Z,100106.52
2022-11-16T08:38:23.748Z,100109.73
2022-11-16T08:41:13.868Z,100107.08
2022-11-16T08:44:05.845Z,100108.72
2022-11-16T08:46:57.302Z,100109.86
2022-11-16T08:50:11.183Z,100106.63
2022-11-16T08:53:02.083Z,100113.34
2022-11-16T08:55:52.455Z,100117.34
2022-11-16T08:58:43.783Z,100115.02
2022-11-16T09:01:34.997Z,100110.92
2022-11-16T09:04:25.330Z,100102.21
2022-11-16T09:07:15.612Z,100100.04
2022-11-16T09:10:06.537Z,100099.55
2022-11-16T09:12:56.572Z,100099.58
2022-11-16T09:15:46.629Z,100097.16
2022-11-16T09:18:37.143Z,100089.61
2022-11-16T09:21:29.531Z,100087.93
2022-11-16T09:24:19.913Z,100093.75
2022-11-16T09:27:10.601Z,100097.94
2022-11-16T09:30:00.300Z,100097.83
2022-11-16T09:32:49.913Z,100096.52
2022-11-16T09:35:40.345Z,100097.46
2022-11-16T09:38:40.621Z,100101.23
2022-11-16T09:42:02.061Z,100103.93
2022-11-16T09:45:04.733Z,100099.79
2022-11-16T09:48:01.761Z,100099.18
2022-11-16T09:50:54.957Z,100099.44
2022-11-16T09:53:47.631Z,100098.15
2022-11-16T09:56:42.545Z,100101.56
2022-11-16T09:59:38.445Z,100103.94
2022-11-16T10:02:32.217Z,100109.04
2022-11-16T10:05:27.534Z,100112.20
2022-11-16T10:08:24.265Z,100105.58
2022-11-16T10:11:32.924Z,100105.13
2022-11-16T10:14:47.933Z,100105.64
2022-11-16T10:17:58.589Z,100099.52
2022-11-16T10:21:09.360Z,100095.39
2022-11-16T10:24:30.104Z,100088.54
2022-11-16T10:27:37.957Z,100081.06
2022-11-16T10:30:28.620Z,100068.91
2022-11-16T10:33:22.539Z,100062.29
2022-11-16T10:36:16.212Z,100053.95
2022-11-16T10:39:13.666Z,100048.56
2022-11-16T10:42:08.060Z,100049.73
2022-11-16T10:45:05.355Z,100043.27
2022-11-16T10:48:03.211Z,100046.77
2022-11-16T10:50:54.846Z,100044.14
2022-11-16T10:53:45.790Z,100038.27
2022-11-16T10:56:39.955Z,100039.35
2022-11-16T10:59:42.891Z,100033.01
2022-11-16T11:02:36.006Z,100033.58
2022-11-16T11:05:27.085Z,100026.19
2022-11-16T11:08:28.109Z,100023.15
2022-11-16T11:11:41.135Z,100018.73
2022-11-16T11:14:32.540Z,100014.38
2022-11-16T11:17:22.220Z,100010.98
2022-11-16T11:20:25.227Z,100004.35
2022-11-16T11:23:19.117Z,100005.28
2022-11-16T11:26:11.750Z,100005.89
2022-11-16T11:29:02.869Z,100009.59
2022-11-16T11:31:55.566Z,100005.35
2022-11-16T11:34:47.420Z,99994.25
2022-11-16T11:37:40.721Z,99986.36
2022-11-16T11:40:31.990Z,99980.53
2022-11-16T11:43:27.000Z,99972.31
2022-11-16T11:46:35.854Z,99971.39
2022-11-16T11:49:40.291Z,99965.46
2022-11-16T11:52:39.391Z,99956.67
2022-11-16T11:55:30.686Z,99947.73
2022-11-16T11:58:22.642Z,99940.89
2022-11-16T12:01:44.607Z,99938.71
2022-11-16T12:05:10.204Z,99932.58
2022-11-16T12:08:17.542Z,99934.55
2022-11-16T12:11:18.632Z,99930.73
2022-11-16T12:14:19.544Z,99926.82
2022-11-16T12:17:20.652Z,99919.05
2022-11-16T12:20:23.352Z,99915.61
2022-11-16T12:23:41.035Z,99907.74
2022-11-16T12:26:38.788Z,99903.36
2022-11-16T12:29:34.690Z,99894.85
2022-11-16T12:32:47.153Z,99887.09
2022-11-16T12:35:54.293Z,99879.05
2022-11-16T12:38:57.720Z,99880.46
2022-11-16T12:42:08.907Z,99885.64
2022-11-16T12:45:18.519Z,99894.88
2022-11-16T12:48:32.065Z,99897.91
2022-11-16T12:51:37.525Z,99901.30
2022-11-16T12:55:04.312Z,99910.98
2022-11-16T12:58:08.672Z,99911.02
2022-11-16T13:01:12.796Z,99906.89
2022-11-16T13:04:08.928Z,99909.00
2022-11-16T13:07:10.427Z,99909.73
2022-11-16T13:10:08.024Z,99903.96
2022-11-16T13:13:34.959Z,99896.88
2022-11-16T13:16:15.572Z,99902.88
2022-11-16T13:19:07.942Z,99907.39
2022-11-16T13:22:03.845Z,99906.67
2022-11-16T13:24:58.824Z,99897.60
2022-11-16T13:27:53.690Z,99890.53
2022-11-16T13:30:53.185Z,99896.15
2022-11-16T13:33:51.340Z,99893.67
2022-11-16T13:36:48.860Z,99895.19
2022-11-16T13:40:22.241Z,99903.20
2022-11-16T13:43:22.758Z,99897.32
2022-11-16T13:46:27.617Z,99890.10
2022-11-16T13:49:33.761Z,99884.36
2022-11-16T13:52:35.438Z,99883.02
2022-11-16T13:55:37.175Z,99877.36
2022-11-16T13:58:29.050Z,99879.30
2022-11-16T14:01:20.498Z,99883.14
2022-11-16T14:04:49.672Z,99882.77
2022-11-16T14:07:43.330Z,99883.43
2022-11-16T14:11:03.158Z,99884.33
2022-11-16T14:13:53.576Z,99881.33
2022-11-16T14:16:53.858Z,99878.31
2022-11-16T14:19:59.694Z,99871.34
2022-11-16T14:23:02.056Z,99869.60
2022-11-16T14:26:00.395Z,99871.41
2022-11-16T14:29:10.128Z,99877.42
2022-11-16T14:32:03.084Z,99882.27
2022-11-16T14:34:55.336Z,99884.52
2022-11-16T14:37:45.253Z,99886.70
2022-11-16T14:40:47.147Z,99890.20
2022-11-16T14:43:41.129Z,99885.80
2022-11-16T14:46:36.450Z,99880.72
2022-11-16T14:49:29.143Z,99877.27
2022-11-16T14:52:22.625Z,99874.05
2022-11-16T14:55:20.992Z,99866.35
2022-11-16T14:58:17.583Z,99868.41
2022-11-16T15:01:13.973Z,99868.98
2022-11-16T15:04:07.349Z,99863.95
2022-11-16T15:07:02.714Z,99861.84
2022-11-16T15:09:55.443Z,99865.45
2022-11-16T15:12:51.990Z,99874.84
2022-11-16T15:15:42.229Z,99869.55
2022-11-16T15:18:32.012Z,99862.98
2022-11-16T15:21:26.321Z,99854.31
2022-11-16T15:24:32.773Z,99850.64
2022-11-16T15:27:32.835Z,99852.90
2022-11-16T15:30:25.162Z,99858.39
2022-11-16T15:33:20.169Z,99859.66
2022-11-16T15:36:32.569Z,99862.83
2022-11-16T15:39:25.558Z,99861.56
2022-11-16T15:42:17.775Z,99858.48
2022-11-16T15:45:16.911Z,99852.58
2022-11-16T15:48:08.190Z,99854.36
2022-11-16T15:51:10.032Z,99863.11
2022-11-16T15:54:16.243Z,99871.73
2022-11-16T15:57:10.937Z,99872.80
2022-11-16T16:00:00.776Z,99873.02
2022-11-16T16:02:50.516Z,99872.29
2022-11-16T16:05:42.083Z,99872.29
2022-11-16T16:08:37.045Z,99875.55
2022-11-16T16:11:30.571Z,99875.88
2022-11-16T16:14:31.406Z,99875.67
2022-11-16T16:17:27.633Z,99875.48
2022-11-16T16:20:21.465Z,99878.17
2022-11-16T16:23:16.020Z,99876.17
2022-11-16T16:26:07.434Z,99872.74
2022-11-16T16:28:57.487Z,99864.36
2022-11-16T16:31:47.580Z,99846.92
2022-11-16T16:34:40.891Z,99836.75
2022-11-16T16:37:34.312Z,99835.69
2022-11-16T16:40:24.336Z,99846.03
2022-11-16T16:43:14.083Z,99856.00
2022-11-16T16:46:05.111Z,99861.63
2022-11-16T16:48:55.013Z,99869.59
2022-11-16T16:51:44.920Z,99868.39
2022-11-16T16:54:35.356Z,99876.17
2022-11-16T16:57:25.543Z,99884.61
2022-11-16T17:00:17.742Z,99879.52
2022-11-16T17:03:07.761Z,99874.84
2022-11-16T17:06:02.751Z,99881.87
2022-11-16T17:08:52.372Z,99883.54
2022-11-16T17:11:42.544Z,99885.75
2022-11-16T17:14:32.378Z,99886.08
2022-11-16T17:17:24.348Z,99893.48
2022-11-16T17:20:16.297Z,99890.48
2022-11-16T17:23:06.062Z,99885.41
2022-11-16T17:25:55.918Z,99881.78
2022-11-16T17:28:45.644Z,99887.45
2022-11-16T17:31:36.307Z,99893.04
2022-11-16T17:34:26.269Z,99894.34
2022-11-16T17:37:16.789Z,99895.75
2022-11-16T17:40:08.507Z,99895.89
2022-11-16T17:42:58.251Z,99892.55
2022-11-16T17:45:47.930Z,99889.90
2022-11-16T17:48:38.678Z,99887.24
2022-11-16T17:51:29.895Z,99883.71
2022-11-16T17:54:20.134Z,99883.02
2022-11-16T17:57:10.260Z,99887.89
2022-11-16T17:59:59.979Z,99894.16
2022-11-16T18:02:49.800Z,99897.82
2022-11-16T18:05:39.797Z,99902.17
2022-11-16T18:08:30.180Z,99899.10
2022-11-16T18:11:22.014Z,99900.95
2022-11-16T18:14:12.061Z,99909.79
2022-11-16T18:17:02.202Z,99910.08
2022-11-16T18:19:51.885Z,99909.73
2022-11-16T18:22:41.447Z,99910.64
2022-11-16T18:25:31.705Z,99910.15
2022-11-16T18:28:22.092Z,99916.33
2022-11-16T18:31:15.505Z,99925.23
2022-11-16T18:34:05.816Z,99926.25
2022-11-16T18:36:56.311Z,99928.28
2022-11-16T18:39:46.158Z,99925.34
2022-11-16T18:42:36.167Z,99927.38
2022-11-16T18:45:28.241Z,99932.02
2022-11-16T18:48:18.280Z,99929.27
2022-11-16T18:51:08.302Z,99924.21
2022-11-16T18:53:58.312Z,99924.45
2022-11-16T18:56:48.239Z,99922.65
2022-11-16T18:59:38.210Z,99921.35
2022-11-16T19:02:28.191Z,99923.05
2022-11-16T19:05:18.116Z,99930.34
2022-11-16T19:08:08.786Z,99929.42
2022-11-16T19:11:03.964Z,99921.00
2022-11-16T19:13:57.568Z,99919.95
2022-11-16T19:16:54.016Z,99921.35
2022-11-16T19:19:45.956Z,99920.23
2022-11-16T19:22:37.040Z,99919.80
2022-11-16T19:25:27.235Z,99915.19
2022-11-16T19:28:17.113Z,99915.27
2022-11-16T19:31:12.009Z,99917.86
2022-11-16T19:34:04.394Z,99923.45
2022-11-16T19:36:54.916Z,99924.42
2022-11-16T19:39:45.856Z,99923.02
2022-11-16T19:42:36.169Z,99920.09
2022-11-16T19:45:27.592Z,99911.86
2022-11-16T19:48:18.150Z,99908.80
2022-11-16T19:51:10.979Z,99912.23
2022-11-16T19:54:02.521Z,99920.82
2022-11-16T19:56:55.197Z,99927.79
2022-11-16T19:59:46.189Z,99931.63
2022-11-16T20:02:39.055Z,99929.84
2022-11-16T20:05:30.501Z,99932.33
2022-11-16T20:08:20.497Z,99937.55
2022-11-16T20:11:16.112Z,99935.23
2022-11-16T20:14:08.743Z,99937.00
2022-11-16T20:16:59.020Z,99941.96
2022-11-16T20:19:49.309Z,99946.45
2022-11-16T20:22:39.383Z,99940.36
2022-11-16T20:25:29.203Z,99934.13
2022-11-16T20:28:18.924Z,99928.48
2022-11-16T20:31:11.347Z,99927.13
2022-11-16T20:34:03.008Z,99926.48
2022-11-16T20:36:52.699Z,99926.98
2022-11-16T20:39:42.414Z,99927.31
2022-11-16T20:42:32.397Z,99919.10
2022-11-16T20:45:22.379Z,99911.02
2022-11-16T20:48:11.976Z,99911.93
2022-11-16T20:51:01.509Z,99927.11
2022-11-16T20:53:52.111Z,99936.38
2022-11-16T20:56:42.035Z,99933.09
2022-11-16T20:59:31.648Z,99930.17
2022-11-16T21:02:21.326Z,99930.40
2022-11-16T21:05:11.883Z,99930.95
2022-11-16T21:08:01.548Z,99927.77
2022-11-16T21:10:51.275Z,99930.58
2022-11-16T21:13:58.323Z,99935.49
2022-11-16T21:16:47.934Z,99935.33
2022-11-16T21:19:38.065Z,99928.77
2022-11-16T21:22:32.168Z,99921.37
2022-11-16T21:25:22.634Z,99916.23
2022-11-16T21:28:12.329Z,99917.47
2022-11-16T21:31:04.893Z,99914.64
2022-11-16T21:33:55.701Z,99907.33
2022-11-16T21:36:45.944Z,99906.52
2022-11-16T21:39:36.303Z,99907.92
2022-11-16T21:42:26.802Z,99915.36
2022-11-16T21:45:17.400Z,99921.59
2022-11-16T21:48:08.758Z,99926.49
2022-11-16T21:51:04.824Z,99930.85
2022-11-16T21:53:55.313Z,99930.89
2022-11-16T21:56:45.723Z,99923.89
2022-11-16T21:59:35.575Z,99917.30
2022-11-16T22:02:25.864Z,99919.69
2022-11-16T22:05:34.331Z,99915.65
2022-11-16T22:08:24.195Z,99910.98
2022-11-16T22:11:15.885Z,99909.36
2022-11-16T22:14:06.448Z,99913.77
2022-11-16T22:16:56.755Z,99915.55
2022-11-16T22:19:47.123Z,99916.73
2022-11-16T22:22:36.639Z,99924.45
2022-11-16T22:25:27.174Z,99931.16
2022-11-16T22:28:21.180Z,99924.83
2022-11-16T22:31:14.148Z,99921.96
2022-11-16T22:34:04.013Z,99921.41
2022-11-16T22:36:53.889Z,99927.80
2022-11-16T22:39:44.322Z,99927.55
2022-11-16T22:42:34.249Z,99925.58
2022-11-16T22:45:25.184Z,99923.25
2022-11-16T22:48:15.851Z,99922.52
2022-11-16T22:51:07.845Z,99921.36
2022-11-16T22:53:59.034Z,99927.59
2022-11-16T22:56:49.441Z,99931.86
2022-11-16T22:59:39.582Z,99933.64
2022-11-16T23:02:29.302Z,99931.27
2022-11-16T23:05:19.265Z,99924.86
2022-11-16T23:08:09.028Z,99920.11
2022-11-16T23:11:22.831Z,99915.53
2022-11-16T23:14:33.560Z,99913.91
2022-11-16T23:17:23.333Z,99913.95
2022-11-16T23:20:31.752Z,99906.92
2022-11-16T23:23:38.952Z,99905.70
2022-11-16T23:26:46.462Z,99906.45
2022-11-16T23:29:37.014Z,99903.46
2022-11-16T23:32:27.322Z,99902.98
2022-11-16T23:35:18.590Z,99904.08
2022-11-16T23:38:09.963Z,99906.55
2022-11-16T23:41:21.020Z,99902.61
2022-11-16T23:44:11.315Z,99896.93
2022-11-16T23:47:01.288Z,99895.09
2022-11-16T23:49:51.221Z,99895.42
2022-11-16T23:52:41.662Z,99895.84
2022-11-16T23:55:33.353Z,99897.08
2022-11-16T23:58:24.358Z,99895.15
